createdAt,value
2023-03-13T00:01:26.105Z,79.01
2023-03-13T00:05:29.086Z,78.21
2023-03-13T00:09:32.508Z,78.71
2023-03-13T00:13:35.659Z,78.98
2023-03-13T00:17:39.684Z,78.25
2023-03-13T00:21:43.018Z,78.26
2023-03-13T00:25:46.452Z,79.72
2023-03-13T00:29:50.831Z,78.88
2023-03-13T00:33:56.280Z,79.29
2023-03-13T00:37:59.282Z,81.16
2023-03-13T00:42:03.996Z,82.40
2023-03-13T00:46:08.084Z,82.92
2023-03-13T00:50:12.855Z,84.57
2023-03-13T00:54:17.472Z,85.68
2023-03-13T00:58:21.230Z,85.26
2023-03-13T01:02:24.072Z,85.94
2023-03-13T01:06:32.560Z,88.25
2023-03-13T01:10:36.227Z,90.09
2023-03-13T01:14:39.332Z,90.59
2023-03-13T01:18:44.901Z,89.62
2023-03-13T01:22:49.389Z,89.80
2023-03-13T01:26:55.581Z,88.87
2023-03-13T01:30:58.611Z,90.20
2023-03-13T01:35:01.510Z,91.37
2023-03-13T01:39:06.735Z,91.61
2023-03-13T01:43:27.177Z,92.02
2023-03-13T01:47:30.910Z,91.31
2023-03-13T01:51:35.625Z,93.71
2023-03-13T01:55:41.013Z,93.03
2023-03-13T01:59:49.723Z,94.53
2023-03-13T02:03:53.549Z,94.37
2023-03-13T02:07:57.152Z,93.61
2023-03-13T02:12:06.157Z,94.17
2023-03-13T02:16:12.317Z,94.65
2023-03-13T02:20:17.112Z,94.01
2023-03-13T02:24:25.867Z,94.45
2023-03-13T02:28:34.019Z,95.50
2023-03-13T02:32:40.841Z,93.76
2023-03-13T02:36:44.407Z,94.95
2023-03-13T02:40:52.958Z,94.45
2023-03-13T02:44:57.233Z,94.92
2023-03-13T02:49:00.343Z,95.59
2023-03-13T02:53:06.501Z,95.60
2023-03-13T02:57:15.746Z,96.09
2023-03-13T03:01:20.858Z,94.91
2023-03-13T03:05:24.519Z,96.35
2023-03-13T03:09:27.561Z,96.16
2023-03-13T03:18:04.913Z,95.50
2023-03-13T03:22:07.760Z,96.70
2023-03-13T03:26:10.550Z,95.93
2023-03-13T03:30:14.607Z,96.33
2023-03-13T03:34:19.221Z,97.21
2023-03-13T03:38:22.372Z,96.40
2023-03-13T03:42:25.317Z,96.10
2023-03-13T03:46:28.853Z,96.02
2023-03-13T03:50:33.394Z,96.30
2023-03-13T03:54:36.200Z,95.94
2023-03-13T03:58:39.749Z,95.80
2023-03-13T04:02:43.325Z,96.55
2023-03-13T04:06:50.598Z,96.60
2023-03-13T04:10:53.556Z,96.43
2023-03-13T04:14:56.532Z,95.64
2023-03-13T04:18:59.464Z,96.22
2023-03-13T04:23:07.096Z,96.10
2023-03-13T04:27:09.951Z,95.99
2023-03-13T04:31:12.889Z,95.66
2023-03-13T04:35:16.210Z,96.22
2023-03-13T04:39:20.946Z,95.92
2023-03-13T04:43:23.828Z,97.04
2023-03-13T04:47:26.855Z,97.03
2023-03-13T04:51:33.213Z,96.77
2023-03-13T04:55:37.820Z,96.92
2023-03-13T04:59:43.619Z,96.84
2023-03-13T05:03:47.333Z,97.16
2023-03-13T05:07:50.119Z,97.88
2023-03-13T05:11:56.522Z,97.54
2023-03-13T05:16:00.945Z,97.29
2023-03-13T05:20:07.094Z,96.66
2023-03-13T05:24:11.082Z,96.67
2023-03-13T05:28:15.660Z,96.79
2023-03-13T05:32:21.496Z,96.77
2023-03-13T05:36:24.565Z,96.28
2023-03-13T05:40:27.533Z,97.06
2023-03-13T05:44:32.334Z,96.64
2023-03-13T05:48:35.263Z,96.36
2023-03-13T05:52:38.622Z,95.95
2023-03-13T05:56:41.559Z,96.48
2023-03-13T06:00:45.758Z,95.84
2023-03-13T06:04:51.470Z,96.15
2023-03-13T06:08:54.968Z,96.14
2023-03-13T06:13:01.445Z,95.81
2023-03-13T06:17:14.451Z,95.89
2023-03-13T06:21:18.231Z,95.62
2023-03-13T06:25:22.798Z,95.03
2023-03-13T06:29:26.503Z,95.01
2023-03-13T06:33:31.229Z,95.09
2023-03-13T06:37:38.281Z,94.80
2023-03-13T06:41:41.836Z,95.03
2023-03-13T06:45:45.292Z,94.64
2023-03-13T06:49:52.593Z,95.18
2023-03-13T06:53:58.760Z,94.51
2023-03-13T06:58:02.441Z,94.64
2023-03-13T07:02:05.931Z,94.71
2023-03-13T07:06:11.233Z,93.86
2023-03-13T07:10:15.742Z,94.19
2023-03-13T07:14:18.402Z,94.53
2023-03-13T07:18:23.315Z,94.66
2023-03-13T07:22:28.199Z,94.42
2023-03-13T07:26:31.093Z,94.38
2023-03-13T07:30:35.662Z,94.74
2023-03-13T07:34:39.451Z,94.67
2023-03-13T07:38:44.380Z,94.58
2023-03-13T07:42:47.092Z,94.01
2023-03-13T07:46:50.394Z,93.79
2023-03-13T07:50:58.171Z,93.53
2023-03-13T07:55:02.990Z,91.67
2023-03-13T07:59:07.101Z,93.06
2023-03-13T08:03:11.025Z,93.58
2023-03-13T08:07:18.610Z,92.83
2023-03-13T08:11:25.005Z,91.98
2023-03-13T08:15:28.885Z,93.20
2023-03-13T08:19:32.366Z,92.59
2023-03-13T08:23:35.723Z,92.88
2023-03-13T08:27:40.827Z,93.63
2023-03-13T08:31:45.498Z,93.10
2023-03-13T08:35:49.020Z,93.76
2023-03-13T08:39:51.862Z,93.88
2023-03-13T08:43:56.998Z,93.47
2023-03-13T08:47:59.637Z,93.71
2023-03-13T08:52:02.691Z,93.28
2023-03-13T08:56:06.702Z,93.61
2023-03-13T09:00:14.923Z,92.63
2023-03-13T09:04:19.239Z,91.66
2023-03-13T09:08:22.238Z,91.42
2023-03-13T09:12:31.220Z,91.61
2023-03-13T09:16:36.871Z,91.48
2023-03-13T09:20:40.044Z,91.36
2023-03-13T09:24:45.285Z,91.30
2023-03-13T09:28:48.408Z,90.83
2023-03-13T09:32:52.953Z,90.66
2023-03-13T09:36:55.925Z,90.30
2023-03-13T09:41:06.579Z,89.37
2023-03-13T09:45:14.387Z,88.92
2023-03-13T09:49:29.944Z,89.70
2023-03-13T09:53:37.467Z,89.46
2023-03-13T09:57:47.155Z,87.57
2023-03-13T10:01:49.763Z,87.73
2023-03-13T10:05:57.092Z,86.99
2023-03-13T10:10:02.124Z,85.31
2023-03-13T10:14:11.842Z,84.73
2023-03-13T10:18:21.826Z,86.43
2023-03-13T10:22:30.020Z,84.74
2023-03-13T10:26:36.126Z,85.42
2023-03-13T10:30:40.727Z,84.69
2023-03-13T10:34:53.964Z,83.85
2023-03-13T10:38:58.450Z,82.91
2023-03-13T10:43:03.734Z,83.69
2023-03-13T10:47:14.754Z,82.84
2023-03-13T10:51:23.074Z,81.90
2023-03-13T10:55:28.053Z,82.46
2023-03-13T10:59:31.267Z,81.53
2023-03-13T11:03:34.471Z,82.65
2023-03-13T11:07:38.162Z,81.96
2023-03-13T11:11:50.571Z,82.28
2023-03-13T11:15:57.298Z,82.03
2023-03-13T11:20:06.887Z,82.43
2023-03-13T11:24:11.710Z,80.33
2023-03-13T11:28:31.268Z,80.79
2023-03-13T11:32:40.147Z,81.20
2023-03-13T11:36:47.363Z,80.78
2023-03-13T11:40:55.765Z,80.62
2023-03-13T11:45:04.897Z,81.65
2023-03-13T11:49:33.581Z,80.61
2023-03-13T11:53:45.891Z,79.56
2023-03-13T11:57:53.760Z,78.98
2023-03-13T12:02:01.324Z,79.09
2023-03-13T12:06:06.677Z,77.40
2023-03-13T12:10:17.255Z,77.25
2023-03-13T12:14:24.384Z,76.45
2023-03-13T12:18:33.258Z,76.55
2023-03-13T12:22:39.778Z,75.36
2023-03-13T12:26:45.456Z,77.19
2023-03-13T12:30:51.467Z,76.71
2023-03-13T12:35:01.684Z,76.60
2023-03-13T12:39:13.490Z,77.05
2023-03-13T12:43:18.053Z,77.05
2023-03-13T12:47:27.934Z,77.22
2023-03-13T12:51:43.240Z,77.13
2023-03-13T12:56:26.238Z,76.44
2023-03-13T13:00:30.707Z,77.24
2023-03-13T13:04:34.564Z,77.51
2023-03-13T13:08:41.513Z,74.98
2023-03-13T13:12:45.690Z,74.89
2023-03-13T13:16:52.301Z,73.06
2023-03-13T13:21:20.719Z,75.23
2023-03-13T13:25:35.146Z,74.17
2023-03-13T13:29:56.641Z,74.42
2023-03-13T13:33:59.511Z,73.43
2023-03-13T13:38:36.629Z,71.98
2023-03-13T13:42:48.564Z,70.83
2023-03-13T13:46:51.498Z,71.17
2023-03-13T13:51:33.826Z,69.49
2023-03-13T13:55:44.317Z,70.94
2023-03-13T14:00:00.862Z,70.43
2023-03-13T14:04:12.426Z,73.41
2023-03-13T14:08:18.574Z,70.60
2023-03-13T14:12:29.714Z,70.66
2023-03-13T14:16:34.492Z,71.96
2023-03-13T14:20:38.313Z,71.58
2023-03-13T14:24:43.251Z,91.50
2023-03-13T14:28:56.572Z,92.57
2023-03-13T14:33:00.812Z,93.49
2023-03-13T14:37:37.149Z,93.04
2023-03-13T14:41:45.287Z,93.59
2023-03-13T14:45:49.165Z,93.24
2023-03-13T14:49:59.455Z,93.03
2023-03-13T14:54:04.229Z,93.09
2023-03-13T14:58:27.112Z,93.44
2023-03-13T15:02:31.929Z,94.16
2023-03-13T15:06:37.177Z,94.44
2023-03-13T15:10:40.869Z,94.41
2023-03-13T15:14:45.058Z,94.32
2023-03-13T15:18:49.595Z,95.15
2023-03-13T15:22:53.781Z,94.13
2023-03-13T15:26:56.514Z,95.69
2023-03-13T15:30:59.551Z,95.36
2023-03-13T15:35:03.392Z,94.27
2023-03-13T15:39:12.447Z,95.41
2023-03-13T15:43:15.521Z,94.69
2023-03-13T15:47:20.553Z,97.13
2023-03-13T15:51:23.338Z,97.27
2023-03-13T15:55:28.889Z,95.92
2023-03-13T15:59:31.664Z,93.78
2023-03-13T16:03:35.240Z,95.18
2023-03-13T16:07:37.937Z,92.69
2023-03-13T16:11:42.143Z,93.53
2023-03-13T16:15:45.642Z,94.00
2023-03-13T16:19:48.505Z,94.09
2023-03-13T16:23:51.904Z,94.25
2023-03-13T16:27:56.339Z,95.05
2023-03-13T16:32:01.212Z,93.82
2023-03-13T16:36:13.013Z,94.18
2023-03-13T16:40:17.961Z,95.63
2023-03-13T16:44:23.875Z,95.45
2023-03-13T16:48:34.184Z,94.97
2023-03-13T16:52:38.392Z,95.36
2023-03-13T16:56:43.278Z,94.88
2023-03-13T17:05:12.816Z,93.61
2023-03-13T17:09:17.367Z,95.14
2023-03-13T17:13:23.218Z,94.29
2023-03-13T17:17:27.392Z,93.05
2023-03-13T17:21:32.276Z,94.35
2023-03-13T17:25:35.032Z,94.56
2023-03-13T17:29:37.955Z,94.97
2023-03-13T17:33:50.527Z,95.32
2023-03-13T17:37:53.335Z,94.34
2023-03-13T17:41:57.670Z,94.43
2023-03-13T17:46:00.560Z,95.73
2023-03-13T17:50:16.917Z,96.61
2023-03-13T17:54:22.500Z,95.98
2023-03-13T17:58:30.606Z,91.46
2023-03-13T18:02:34.425Z,92.84
2023-03-13T18:06:46.542Z,92.74
2023-03-13T18:10:50.282Z,92.81
2023-03-13T18:14:52.976Z,92.43
2023-03-13T18:18:57.017Z,92.43
2023-03-13T18:23:01.086Z,91.25
2023-03-13T18:27:05.352Z,92.09
2023-03-13T18:31:11.592Z,92.61
2023-03-13T18:35:15.777Z,92.90
2023-03-13T18:39:21.107Z,94.24
2023-03-13T18:43:26.149Z,95.36
2023-03-13T18:47:29.883Z,94.61
2023-03-13T18:51:32.896Z,95.87
2023-03-13T18:55:37.147Z,95.91
2023-03-13T18:59:41.348Z,97.59
2023-03-13T19:03:45.708Z,98.19
2023-03-13T19:07:48.703Z,97.99
2023-03-13T19:11:53.059Z,99.34
2023-03-13T19:15:56.386Z,97.78
2023-03-13T19:19:59.535Z,97.96
2023-03-13T19:24:02.229Z,99.13
2023-03-13T19:28:10.923Z,98.64
2023-03-13T19:32:15.299Z,98.73
2023-03-13T19:36:19.584Z,97.54
2023-03-13T19:40:24.035Z,97.01
2023-03-13T19:44:28.430Z,98.51
2023-03-13T19:48:31.349Z,97.72
2023-03-13T19:52:34.500Z,95.89
2023-03-13T19:56:39.498Z,97.16
2023-03-13T20:00:43.931Z,97.24
2023-03-13T20:04:46.758Z,96.47
2023-03-13T20:08:50.294Z,97.57
2023-03-13T20:12:53.632Z,98.59
2023-03-13T20:16:57.912Z,98.02
2023-03-13T20:21:00.824Z,98.42
2023-03-13T20:25:04.057Z,98.93
2023-03-13T20:29:07.155Z,99.44
2023-03-13T20:33:12.146Z,98.93
2023-03-13T20:37:14.930Z,98.49
2023-03-13T20:41:21.163Z,99.11
2023-03-13T20:45:23.890Z,97.75
2023-03-13T20:49:28.644Z,98.65
2023-03-13T20:53:31.542Z,99.12
2023-03-13T20:57:34.164Z,98.72
2023-03-13T21:01:37.135Z,99.55
2023-03-13T21:05:42.315Z,99.71
2023-03-13T21:09:45.123Z,98.43
2023-03-13T21:13:48.526Z,99.78
2023-03-13T21:17:53.876Z,99.41
2023-03-13T21:21:58.074Z,99.20
2023-03-13T21:26:01.737Z,98.39
2023-03-13T21:30:05.932Z,98.06
2023-03-13T21:34:10.943Z,96.02
2023-03-13T21:38:16.352Z,96.40
2023-03-13T21:42:19.463Z,96.31
2023-03-13T21:46:23.901Z,96.13
2023-03-13T21:50:26.568Z,98.03
2023-03-13T21:54:33.293Z,97.47
2023-03-13T21:58:37.136Z,99.26
2023-03-13T22:02:40.716Z,98.54
2023-03-13T22:06:43.367Z,97.09
2023-03-13T22:10:51.609Z,96.77
2023-03-13T22:14:57.428Z,96.47
2023-03-13T22:19:00.629Z,96.56
2023-03-13T22:23:04.687Z,96.48
2023-03-13T22:27:10.391Z,96.73
2023-03-13T22:31:13.922Z,96.68
2023-03-13T22:35:16.873Z,96.37
2023-03-13T22:39:19.700Z,94.94
2023-03-13T22:43:23.788Z,95.96
2023-03-13T22:47:26.751Z,94.90
2023-03-13T22:51:29.456Z,95.74
2023-03-13T22:55:33.946Z,96.27
2023-03-13T22:59:38.650Z,96.42
2023-03-13T23:03:43.083Z,94.96
2023-03-13T23:07:47.073Z,94.91
2023-03-13T23:11:51.045Z,94.68
2023-03-13T23:15:57.755Z,93.36
2023-03-13T23:20:01.600Z,93.13
2023-03-13T23:24:05.062Z,93.33
2023-03-13T23:28:09.014Z,93.14
2023-03-13T23:32:14.388Z,93.85
2023-03-13T23:36:23.189Z,92.48
2023-03-13T23:40:28.451Z,92.51
2023-03-13T23:44:32.983Z,94.47
2023-03-13T23:48:37.436Z,94.75
2023-03-13T23:52:41.334Z,93.80
2023-03-13T23:56:45.480Z,93.35
